sensor_id;sensor_type;location;lat;lon;timestamp;P1;durP1;ratioP1;P2;durP2;ratioP2
15504;SDS011;7854;52.184;5.942;2022-12-10T00:02:55;81;;;36;;
15504;SDS011;7854;52.184;5.942;2022-12-10T00:04:07;71;;;37;;
15504;SDS011;7854;52.184;5.942;2022-12-10T00:06:23;78;;;38;;
15504;SDS011;7854;52.184;5.942;2022-12-10T00:08:36;85;;;38;;
15504;SDS011;7854;52.184;5.942;2022-12-10T00:10:51;72;;;36;;
15504;SDS011;7854;52.184;5.942;2022-12-10T00:13:05;82;;;40;;
15504;SDS011;7854;52.184;5.942;2022-12-10T00:15:20;86;;;39;;
15504;SDS011;7854;52.184;5.942;2022-12-10T00:17:34;87;;;39;;
15504;SDS011;7854;52.184;5.942;2022-12-10T00:19:49;74;;;36;;
15504;SDS011;7854;52.184;5.942;2022-12-10T00:22:03;85;;;37;;
15504;SDS011;7854;52.184;5.942;2022-12-10T00:24:17;110;;;38;;
15504;SDS011;7854;52.184;5.942;2022-12-10T00:26:33;81;;;38;;
15504;SDS011;7854;52.184;5.942;2022-12-10T00:28:47;75;;;37;;
15504;SDS011;7854;52.184;5.942;2022-12-10T00:31:02;100;;;39;;
15504;SDS011;7854;52.184;5.942;2022-12-10T00:33:15;77;;;36;;
15504;SDS011;7854;52.184;5.942;2022-12-10T00:35:30;74;;;37;;
15504;SDS011;7854;52.184;5.942;2022-12-10T00:37:44;81;;;38;;
15504;SDS011;7854;52.184;5.942;2022-12-10T00:39:59;80;;;38;;
15504;SDS011;7854;52.184;5.942;2022-12-10T00:42:12;70;;;36;;
15504;SDS011;7854;52.184;5.942;2022-12-10T00:44:27;74;;;38;;
15504;SDS011;7854;52.184;5.942;2022-12-10T00:46:41;69;;;37;;
15504;SDS011;7854;52.184;5.942;2022-12-10T00:48:57;68;;;36;;
15504;SDS011;7854;52.184;5.942;2022-12-10T00:51:11;84;;;37;;
15504;SDS011;7854;52.184;5.942;2022-12-10T00:53:24;83;;;36;;
15504;SDS011;7854;52.184;5.942;2022-12-10T00:55:39;79;;;37;;
15504;SDS011;7854;52.184;5.942;2022-12-10T00:57:53;82;;;38;;
15504;SDS011;7854;52.184;5.942;2022-12-10T01:00:08;76;;;36;;
15504;SDS011;7854;52.184;5.942;2022-12-10T01:04:37;90;;;36;;
15504;SDS011;7854;52.184;5.942;2022-12-10T01:06:52;73;;;36;;
15504;SDS011;7854;52.184;5.942;2022-12-10T01:11:21;110;;;39;;
15504;SDS011;7854;52.184;5.942;2022-12-10T01:13:34;74;;;35;;
15504;SDS011;7854;52.184;5.942;2022-12-10T01:15:54;72;;;35;;
15504;SDS011;7854;52.184;5.942;2022-12-10T01:18:15;79;;;35;;
15504;SDS011;7854;52.184;5.942;2022-12-10T01:20:35;63;;;33;;
15504;SDS011;7854;52.184;5.942;2022-12-10T01:22:55;75;;;35;;
15504;SDS011;7854;52.184;5.942;2022-12-10T01:25:16;74;;;37;;
15504;SDS011;7854;52.184;5.942;2022-12-10T01:27:36;84;;;36;;
15504;SDS011;7854;52.184;5.942;2022-12-10T01:29:50;66;;;34;;
15504;SDS011;7854;52.184;5.942;2022-12-10T01:32:05;69;;;34;;
15504;SDS011;7854;52.184;5.942;2022-12-10T01:34:19;80;;;35;;
15504;SDS011;7854;52.184;5.942;2022-12-10T01:36:34;74;;;35;;
15504;SDS011;7854;52.184;5.942;2022-12-10T01:38:48;80;;;39;;
15504;SDS011;7854;52.184;5.942;2022-12-10T01:41:03;66;;;35;;
15504;SDS011;7854;52.184;5.942;2022-12-10T01:43:17;78;;;35;;
15504;SDS011;7854;52.184;5.942;2022-12-10T01:45:32;85;;;37;;
15504;SDS011;7854;52.184;5.942;2022-12-10T01:47:46;75;;;37;;
15504;SDS011;7854;52.184;5.942;2022-12-10T01:50:01;88;;;36;;
15504;SDS011;7854;52.184;5.942;2022-12-10T01:52:15;94;;;38;;
15504;SDS011;7854;52.184;5.942;2022-12-10T01:54:30;83;;;36;;
15504;SDS011;7854;52.184;5.942;2022-12-10T01:56:45;85;;;37;;
15504;SDS011;7854;52.184;5.942;2022-12-10T01:58:58;82;;;35;;
15504;SDS011;7854;52.184;5.942;2022-12-10T02:01:14;77;;;39;;
15504;SDS011;7854;52.184;5.942;2022-12-10T02:03:29;77;;;37;;
15504;SDS011;7854;52.184;5.942;2022-12-10T02:05:42;80;;;37;;
15504;SDS011;7854;52.184;5.942;2022-12-10T02:07:59;82;;;38;;
15504;SDS011;7854;52.184;5.942;2022-12-10T02:10:13;83;;;39;;
15504;SDS011;7854;52.184;5.942;2022-12-10T02:12:27;73;;;37;;
15504;SDS011;7854;52.184;5.942;2022-12-10T02:14:42;89;;;41;;
15504;SDS011;7854;52.184;5.942;2022-12-10T02:16:55;81;;;39;;
15504;SDS011;7854;52.184;5.942;2022-12-10T02:19:22;81;;;39;;
15504;SDS011;7854;52.184;5.942;2022-12-10T02:21:22;82;;;39;;
15504;SDS011;7854;52.184;5.942;2022-12-10T02:23:37;91;;;41;;
15504;SDS011;7854;52.184;5.942;2022-12-10T02:25:52;97;;;41;;
15504;SDS011;7854;52.184;5.942;2022-12-10T02:28:06;88;;;40;;
15504;SDS011;7854;52.184;5.942;2022-12-10T02:30:19;93;;;43;;
15504;SDS011;7854;52.184;5.942;2022-12-10T02:32:35;90;;;42;;
15504;SDS011;7854;52.184;5.942;2022-12-10T02:34:49;88;;;42;;
15504;SDS011;7854;52.184;5.942;2022-12-10T02:37:04;86;;;41;;
15504;SDS011;7854;52.184;5.942;2022-12-10T02:39:18;88;;;41;;
15504;SDS011;7854;52.184;5.942;2022-12-10T02:41:33;81;;;42;;
15504;SDS011;7854;52.184;5.942;2022-12-10T02:43:46;111;;;41;;
15504;SDS011;7854;52.184;5.942;2022-12-10T02:46:01;86;;;41;;
15504;SDS011;7854;52.184;5.942;2022-12-10T02:48:15;84;;;40;;
15504;SDS011;7854;52.184;5.942;2022-12-10T02:50:30;103;;;43;;
15504;SDS011;7854;52.184;5.942;2022-12-10T02:52:44;58;;;35;;
15504;SDS011;7854;52.184;5.942;2022-12-10T02:54:59;83;;;39;;
15504;SDS011;7854;52.184;5.942;2022-12-10T02:57:15;91;;;42;;
15504;SDS011;7854;52.184;5.942;2022-12-10T02:59:28;73;;;39;;
15504;SDS011;7854;52.184;5.942;2022-12-10T03:01:43;95;;;45;;
15504;SDS011;7854;52.184;5.942;2022-12-10T03:03:56;75;;;38;;
15504;SDS011;7854;52.184;5.942;2022-12-10T03:06:12;93;;;43;;
15504;SDS011;7854;52.184;5.942;2022-12-10T03:08:26;100;;;43;;
15504;SDS011;7854;52.184;5.942;2022-12-10T03:10:41;84;;;42;;
15504;SDS011;7854;52.184;5.942;2022-12-10T03:12:54;80;;;42;;
15504;SDS011;7854;52.184;5.942;2022-12-10T03:15:09;94;;;40;;
15504;SDS011;7854;52.184;5.942;2022-12-10T03:17:23;65;;;38;;
15504;SDS011;7854;52.184;5.942;2022-12-10T03:19:39;81;;;39;;
15504;SDS011;7854;52.184;5.942;2022-12-10T03:21:52;88;;;40;;
15504;SDS011;7854;52.184;5.942;2022-12-10T03:24:07;79;;;41;;
15504;SDS011;7854;52.184;5.942;2022-12-10T03:26:21;101;;;43;;
15504;SDS011;7854;52.184;5.942;2022-12-10T03:28:39;68;;;37;;
15504;SDS011;7854;52.184;5.942;2022-12-10T03:30:50;117;;;42;;
15504;SDS011;7854;52.184;5.942;2022-12-10T03:33:04;98;;;43;;
15504;SDS011;7854;52.184;5.942;2022-12-10T03:35:19;76;;;37;;
15504;SDS011;7854;52.184;5.942;2022-12-10T03:37:33;90;;;41;;
15504;SDS011;7854;52.184;5.942;2022-12-10T03:39:48;75;;;38;;
15504;SDS011;7854;52.184;5.942;2022-12-10T03:42:03;69;;;36;;
15504;SDS011;7854;52.184;5.942;2022-12-10T03:44:26;75;;;39;;
15504;SDS011;7854;52.184;5.942;2022-12-10T03:46:31;70;;;37;;
15504;SDS011;7854;52.184;5.942;2022-12-10T03:48:45;91;;;40;;
15504;SDS011;7854;52.184;5.942;2022-12-10T03:51:00;96;;;41;;
15504;SDS011;7854;52.184;5.942;2022-12-10T03:53:14;79;;;40;;
15504;SDS011;7854;52.184;5.942;2022-12-10T03:55:28;87;;;38;;
15504;SDS011;7854;52.184;5.942;2022-12-10T03:57:43;84;;;38;;
15504;SDS011;7854;52.184;5.942;2022-12-10T03:59:58;102;;;41;;
15504;SDS011;7854;52.184;5.942;2022-12-10T04:02:12;86;;;42;;
15504;SDS011;7854;52.184;5.942;2022-12-10T04:04:26;118;;;44;;
15504;SDS011;7854;52.184;5.942;2022-12-10T04:06:41;82;;;41;;
15504;SDS011;7854;52.184;5.942;2022-12-10T04:08:55;113;;;45;;
15504;SDS011;7854;52.184;5.942;2022-12-10T04:11:10;85;;;40;;
15504;SDS011;7854;52.184;5.942;2022-12-10T04:13:24;97;;;43;;
15504;SDS011;7854;52.184;5.942;2022-12-10T04:15:39;93;;;43;;
15504;SDS011;7854;52.184;5.942;2022-12-10T04:17:53;94;;;44;;
15504;SDS011;7854;52.184;5.942;2022-12-10T04:20:08;94;;;43;;
15504;SDS011;7854;52.184;5.942;2022-12-10T04:22:22;96;;;44;;
15504;SDS011;7854;52.184;5.942;2022-12-10T04:24:36;107;;;46;;
15504;SDS011;7854;52.184;5.942;2022-12-10T04:26:51;110;;;45;;
15504;SDS011;7854;52.184;5.942;2022-12-10T04:29:05;117;;;48;;
15504;SDS011;7854;52.184;5.942;2022-12-10T04:31:19;113;;;47;;
15504;SDS011;7854;52.184;5.942;2022-12-10T04:33:34;119;;;44;;
15504;SDS011;7854;52.184;5.942;2022-12-10T04:35:49;134;;;45;;
15504;SDS011;7854;52.184;5.942;2022-12-10T04:38:03;103;;;41;;
15504;SDS011;7854;52.184;5.942;2022-12-10T04:40:18;88;;;40;;
15504;SDS011;7854;52.184;5.942;2022-12-10T04:42:31;105;;;44;;
15504;SDS011;7854;52.184;5.942;2022-12-10T04:44:46;102;;;46;;
15504;SDS011;7854;52.184;5.942;2022-12-10T04:47:00;122;;;45;;
15504;SDS011;7854;52.184;5.942;2022-12-10T04:49:14;104;;;44;;
15504;SDS011;7854;52.184;5.942;2022-12-10T04:51:29;106;;;43;;
15504;SDS011;7854;52.184;5.942;2022-12-10T04:53:43;113;;;47;;
15504;SDS011;7854;52.184;5.942;2022-12-10T04:55:58;124;;;46;;
15504;SDS011;7854;52.184;5.942;2022-12-10T04:58:12;99;;;43;;
15504;SDS011;7854;52.184;5.942;2022-12-10T05:00:26;108;;;46;;
15504;SDS011;7854;52.184;5.942;2022-12-10T05:02:41;152;;;49;;
15504;SDS011;7854;52.184;5.942;2022-12-10T05:04:55;100;;;43;;
15504;SDS011;7854;52.184;5.942;2022-12-10T05:07:10;111;;;45;;
15504;SDS011;7854;52.184;5.942;2022-12-10T05:09:24;97;;;45;;
15504;SDS011;7854;52.184;5.942;2022-12-10T05:11:39;106;;;44;;
15504;SDS011;7854;52.184;5.942;2022-12-10T05:13:54;132;;;41;;
15504;SDS011;7854;52.184;5.942;2022-12-10T05:16:09;118;;;47;;
15504;SDS011;7854;52.184;5.942;2022-12-10T05:18:22;106;;;46;;
15504;SDS011;7854;52.184;5.942;2022-12-10T05:20:36;124;;;48;;
15504;SDS011;7854;52.184;5.942;2022-12-10T05:22:51;100;;;45;;
15504;SDS011;7854;52.184;5.942;2022-12-10T05:25:06;126;;;50;;
15504;SDS011;7854;52.184;5.942;2022-12-10T05:27:20;105;;;45;;
15504;SDS011;7854;52.184;5.942;2022-12-10T05:29:34;94;;;42;;
15504;SDS011;7854;52.184;5.942;2022-12-10T05:31:49;126;;;47;;
15504;SDS011;7854;52.184;5.942;2022-12-10T05:34:03;89;;;43;;
15504;SDS011;7854;52.184;5.942;2022-12-10T05:36:19;122;;;46;;
15504;SDS011;7854;52.184;5.942;2022-12-10T05:38:33;112;;;48;;
15504;SDS011;7854;52.184;5.942;2022-12-10T05:40:47;118;;;47;;
15504;SDS011;7854;52.184;5.942;2022-12-10T05:43:01;136;;;46;;
15504;SDS011;7854;52.184;5.942;2022-12-10T05:45:15;120;;;47;;
15504;SDS011;7854;52.184;5.942;2022-12-10T05:47:30;94;;;39;;
15504;SDS011;7854;52.184;5.942;2022-12-10T05:49:44;133;;;47;;
15504;SDS011;7854;52.184;5.942;2022-12-10T05:51:59;113;;;43;;
15504;SDS011;7854;52.184;5.942;2022-12-10T05:54:13;90;;;41;;
15504;SDS011;7854;52.184;5.942;2022-12-10T05:56:28;92;;;40;;
15504;SDS011;7854;52.184;5.942;2022-12-10T05:58:43;126;;;47;;
15504;SDS011;7854;52.184;5.942;2022-12-10T06:00:57;117;;;48;;
15504;SDS011;7854;52.184;5.942;2022-12-10T06:03:11;102;;;44;;
15504;SDS011;7854;52.184;5.942;2022-12-10T06:05:26;103;;;41;;
15504;SDS011;7854;52.184;5.942;2022-12-10T06:07:40;121;;;45;;
15504;SDS011;7854;52.184;5.942;2022-12-10T06:09:55;144;;;44;;
15504;SDS011;7854;52.184;5.942;2022-12-10T06:12:09;119;;;44;;
15504;SDS011;7854;52.184;5.942;2022-12-10T06:14:23;111;;;45;;
15504;SDS011;7854;52.184;5.942;2022-12-10T06:16:38;131;;;41;;
15504;SDS011;7854;52.184;5.942;2022-12-10T06:18:52;115;;;46;;
15504;SDS011;7854;52.184;5.942;2022-12-10T06:21:07;112;;;47;;
15504;SDS011;7854;52.184;5.942;2022-12-10T06:23:21;109;;;45;;
15504;SDS011;7854;52.184;5.942;2022-12-10T06:25:37;92;;;43;;
15504;SDS011;7854;52.184;5.942;2022-12-10T06:27:49;97;;;42;;
15504;SDS011;7854;52.184;5.942;2022-12-10T06:30:04;125;;;47;;
15504;SDS011;7854;52.184;5.942;2022-12-10T06:32:17;104;;;46;;
15504;SDS011;7854;52.184;5.942;2022-12-10T06:34:32;121;;;47;;
15504;SDS011;7854;52.184;5.942;2022-12-10T06:36:46;143;;;50;;
15504;SDS011;7854;52.184;5.942;2022-12-10T06:39:01;117;;;47;;
15504;SDS011;7854;52.184;5.942;2022-12-10T06:41:16;124;;;49;;
15504;SDS011;7854;52.184;5.942;2022-12-10T06:43:29;116;;;48;;
15504;SDS011;7854;52.184;5.942;2022-12-10T06:45:44;141;;;56;;
15504;SDS011;7854;52.184;5.942;2022-12-10T06:47:58;131;;;50;;
15504;SDS011;7854;52.184;5.942;2022-12-10T06:50:13;123;;;50;;
15504;SDS011;7854;52.184;5.942;2022-12-10T06:52:27;141;;;49;;
15504;SDS011;7854;52.184;5.942;2022-12-10T06:54:41;139;;;49;;
15504;SDS011;7854;52.184;5.942;2022-12-10T06:56:56;125;;;50;;
15504;SDS011;7854;52.184;5.942;2022-12-10T06:59:10;115;;;47;;
15504;SDS011;7854;52.184;5.942;2022-12-10T07:01:25;138;;;49;;
15504;SDS011;7854;52.184;5.942;2022-12-10T07:03:38;149;;;47;;
15504;SDS011;7854;52.184;5.942;2022-12-10T07:05:56;121;;;45;;
15504;SDS011;7854;52.184;5.942;2022-12-10T07:08:07;145;;;52;;
15504;SDS011;7854;52.184;5.942;2022-12-10T07:10:22;146;;;52;;
15504;SDS011;7854;52.184;5.942;2022-12-10T07:12:36;150;;;55;;
15504;SDS011;7854;52.184;5.942;2022-12-10T07:14:51;127;;;49;;
15504;SDS011;7854;52.184;5.942;2022-12-10T07:17:05;130;;;44;;
15504;SDS011;7854;52.184;5.942;2022-12-10T07:19:18;133;;;51;;
15504;SDS011;7854;52.184;5.942;2022-12-10T07:21:34;144;;;50;;
15504;SDS011;7854;52.184;5.942;2022-12-10T07:23:48;188;;;58;;
15504;SDS011;7854;52.184;5.942;2022-12-10T07:26:02;136;;;51;;
15504;SDS011;7854;52.184;5.942;2022-12-10T07:28:16;183;;;56;;
15504;SDS011;7854;52.184;5.942;2022-12-10T07:32:45;109;;;46;;
15504;SDS011;7854;52.184;5.942;2022-12-10T07:35:00;164;;;54;;
15504;SDS011;7854;52.184;5.942;2022-12-10T07:37:13;119;;;49;;
15504;SDS011;7854;52.184;5.942;2022-12-10T07:39:28;124;;;52;;
15504;SDS011;7854;52.184;5.942;2022-12-10T07:41:42;119;;;50;;
15504;SDS011;7854;52.184;5.942;2022-12-10T07:43:56;145;;;49;;
15504;SDS011;7854;52.184;5.942;2022-12-10T07:46:11;140;;;47;;
15504;SDS011;7854;52.184;5.942;2022-12-10T07:48:25;143;;;51;;
15504;SDS011;7854;52.184;5.942;2022-12-10T07:50:40;165;;;54;;
15504;SDS011;7854;52.184;5.942;2022-12-10T07:52:54;158;;;50;;
15504;SDS011;7854;52.184;5.942;2022-12-10T07:55:09;132;;;51;;
15504;SDS011;7854;52.184;5.942;2022-12-10T07:57:23;129;;;46;;
15504;SDS011;7854;52.184;5.942;2022-12-10T07:59:38;120;;;48;;
15504;SDS011;7854;52.184;5.942;2022-12-10T08:01:52;122;;;45;;
15504;SDS011;7854;52.184;5.942;2022-12-10T08:04:06;131;;;49;;
15504;SDS011;7854;52.184;5.942;2022-12-10T08:06:21;168;;;53;;
15504;SDS011;7854;52.184;5.942;2022-12-10T08:08:36;118;;;49;;
15504;SDS011;7854;52.184;5.942;2022-12-10T08:10:49;127;;;47;;
15504;SDS011;7854;52.184;5.942;2022-12-10T08:13:05;159;;;50;;
15504;SDS011;7854;52.184;5.942;2022-12-10T08:15:18;141;;;50;;
15504;SDS011;7854;52.184;5.942;2022-12-10T08:17:34;148;;;48;;
15504;SDS011;7854;52.184;5.942;2022-12-10T08:19:47;133;;;46;;
15504;SDS011;7854;52.184;5.942;2022-12-10T08:22:02;129;;;46;;
15504;SDS011;7854;52.184;5.942;2022-12-10T08:24:15;156;;;51;;
15504;SDS011;7854;52.184;5.942;2022-12-10T08:26:31;129;;;49;;
15504;SDS011;7854;52.184;5.942;2022-12-10T08:28:44;132;;;46;;
15504;SDS011;7854;52.184;5.942;2022-12-10T08:30:59;127;;;47;;
15504;SDS011;7854;52.184;5.942;2022-12-10T08:33:13;133;;;51;;
15504;SDS011;7854;52.184;5.942;2022-12-10T08:35:27;133;;;47;;
15504;SDS011;7854;52.184;5.942;2022-12-10T08:37:41;121;;;50;;
15504;SDS011;7854;52.184;5.942;2022-12-10T08:39:55;144;;;49;;
15504;SDS011;7854;52.184;5.942;2022-12-10T08:42:10;134;;;51;;
15504;SDS011;7854;52.184;5.942;2022-12-10T08:44:25;159;;;48;;
15504;SDS011;7854;52.184;5.942;2022-12-10T08:46:39;121;;;49;;
15504;SDS011;7854;52.184;5.942;2022-12-10T08:48:53;149;;;50;;
15504;SDS011;7854;52.184;5.942;2022-12-10T08:51:08;128;;;51;;
15504;SDS011;7854;52.184;5.942;2022-12-10T08:53:23;144;;;48;;
15504;SDS011;7854;52.184;5.942;2022-12-10T08:55:37;136;;;50;;
15504;SDS011;7854;52.184;5.942;2022-12-10T08:57:51;138;;;46;;
15504;SDS011;7854;52.184;5.942;2022-12-10T09:00:06;135;;;50;;
15504;SDS011;7854;52.184;5.942;2022-12-10T09:02:20;148;;;52;;
15504;SDS011;7854;52.184;5.942;2022-12-10T09:04:35;113;;;49;;
15504;SDS011;7854;52.184;5.942;2022-12-10T09:06:49;146;;;48;;
15504;SDS011;7854;52.184;5.942;2022-12-10T09:09:03;140;;;49;;
15504;SDS011;7854;52.184;5.942;2022-12-10T09:11:19;139;;;50;;
15504;SDS011;7854;52.184;5.942;2022-12-10T09:13:32;122;;;45;;
15504;SDS011;7854;52.184;5.942;2022-12-10T09:15:48;112;;;46;;
15504;SDS011;7854;52.184;5.942;2022-12-10T09:18:01;144;;;54;;
15504;SDS011;7854;52.184;5.942;2022-12-10T09:20:16;115;;;43;;
15504;SDS011;7854;52.184;5.942;2022-12-10T09:22:30;101;;;43;;
15504;SDS011;7854;52.184;5.942;2022-12-10T09:24:45;98;;;39;;
15504;SDS011;7854;52.184;5.942;2022-12-10T09:26:59;100;;;41;;
15504;SDS011;7854;52.184;5.942;2022-12-10T09:29:13;103;;;41;;
15504;SDS011;7854;52.184;5.942;2022-12-10T09:31:28;82;;;38;;
15504;SDS011;7854;52.184;5.942;2022-12-10T09:33:43;95;;;36;;
15504;SDS011;7854;52.184;5.942;2022-12-10T09:35:57;95;;;38;;
15504;SDS011;7854;52.184;5.942;2022-12-10T09:38:11;93;;;38;;
15504;SDS011;7854;52.184;5.942;2022-12-10T09:40:27;84;;;36;;
15504;SDS011;7854;52.184;5.942;2022-12-10T09:42:42;78;;;35;;
15504;SDS011;7854;52.184;5.942;2022-12-10T09:44:56;80;;;38;;
15504;SDS011;7854;52.184;5.942;2022-12-10T09:47:09;73;;;34;;
15504;SDS011;7854;52.184;5.942;2022-12-10T09:49:26;77;;;35;;
15504;SDS011;7854;52.184;5.942;2022-12-10T09:51:38;87;;;38;;
15504;SDS011;7854;52.184;5.942;2022-12-10T09:53:53;83;;;37;;
15504;SDS011;7854;52.184;5.942;2022-12-10T09:56:09;117;;;40;;
15504;SDS011;7854;52.184;5.942;2022-12-10T09:58:22;111;;;39;;
15504;SDS011;7854;52.184;5.942;2022-12-10T10:00:37;120;;;43;;
15504;SDS011;7854;52.184;5.942;2022-12-10T10:02:50;142;;;40;;
15504;SDS011;7854;52.184;5.942;2022-12-10T10:05:08;89;;;36;;
15504;SDS011;7854;52.184;5.942;2022-12-10T10:07:20;96;;;38;;
15504;SDS011;7854;52.184;5.942;2022-12-10T10:09:34;99;;;37;;
15504;SDS011;7854;52.184;5.942;2022-12-10T10:11:48;113;;;41;;
15504;SDS011;7854;52.184;5.942;2022-12-10T10:14:04;100;;;37;;
15504;SDS011;7854;52.184;5.942;2022-12-10T10:16:19;126;;;42;;
15504;SDS011;7854;52.184;5.942;2022-12-10T10:18:33;117;;;43;;
15504;SDS011;7854;52.184;5.942;2022-12-10T10:20:45;97;;;41;;
15504;SDS011;7854;52.184;5.942;2022-12-10T10:23:00;112;;;43;;
15504;SDS011;7854;52.184;5.942;2022-12-10T10:25:16;107;;;43;;
15504;SDS011;7854;52.184;5.942;2022-12-10T10:27:29;114;;;44;;
15504;SDS011;7854;52.184;5.942;2022-12-10T10:29:44;106;;;42;;
15504;SDS011;7854;52.184;5.942;2022-12-10T10:32:10;128;;;42;;
15504;SDS011;7854;52.184;5.942;2022-12-10T10:34:13;116;;;44;;
15504;SDS011;7854;52.184;5.942;2022-12-10T10:36:27;123;;;42;;
15504;SDS011;7854;52.184;5.942;2022-12-10T10:38:43;146;;;45;;
15504;SDS011;7854;52.184;5.942;2022-12-10T10:40:57;87;;;37;;
15504;SDS011;7854;52.184;5.942;2022-12-10T10:43:12;83;;;37;;
15504;SDS011;7854;52.184;5.942;2022-12-10T10:45:40;73;;;35;;
15504;SDS011;7854;52.184;5.942;2022-12-10T10:47:39;127;;;41;;
15504;SDS011;7854;52.184;5.942;2022-12-10T10:49:53;112;;;41;;
15504;SDS011;7854;52.184;5.942;2022-12-10T10:52:12;103;;;40;;
15504;SDS011;7854;52.184;5.942;2022-12-10T10:54:38;96;;;37;;
15504;SDS011;7854;52.184;5.942;2022-12-10T10:56:38;75;;;34;;
15504;SDS011;7854;52.184;5.942;2022-12-10T10:58:53;117;;;42;;
15504;SDS011;7854;52.184;5.942;2022-12-10T11:01:05;108;;;39;;
15504;SDS011;7854;52.184;5.942;2022-12-10T11:03:19;103;;;38;;
15504;SDS011;7854;52.184;5.942;2022-12-10T11:05:33;85;;;32;;
15504;SDS011;7854;52.184;5.942;2022-12-10T11:07:48;70;;;31;;
15504;SDS011;7854;52.184;5.942;2022-12-10T11:10:04;68;;;32;;
15504;SDS011;7854;52.184;5.942;2022-12-10T11:12:21;70;;;32;;
15504;SDS011;7854;52.184;5.942;2022-12-10T11:14:32;79;;;35;;
15504;SDS011;7854;52.184;5.942;2022-12-10T11:16:46;79;;;33;;
15504;SDS011;7854;52.184;5.942;2022-12-10T11:19:01;97;;;36;;
15504;SDS011;7854;52.184;5.942;2022-12-10T11:21:16;104;;;36;;
15504;SDS011;7854;52.184;5.942;2022-12-10T11:23:30;94;;;38;;
15504;SDS011;7854;52.184;5.942;2022-12-10T11:25:45;82;;;36;;
15504;SDS011;7854;52.184;5.942;2022-12-10T11:27:59;78;;;33;;
15504;SDS011;7854;52.184;5.942;2022-12-10T11:30:13;94;;;37;;
15504;SDS011;7854;52.184;5.942;2022-12-10T11:32:32;93;;;33;;
15504;SDS011;7854;52.184;5.942;2022-12-10T11:34:45;71;;;31;;
15504;SDS011;7854;52.184;5.942;2022-12-10T11:36:58;69;;;33;;
15504;SDS011;7854;52.184;5.942;2022-12-10T11:39:15;75;;;31;;
15504;SDS011;7854;52.184;5.942;2022-12-10T11:41:25;76;;;31;;
15504;SDS011;7854;52.184;5.942;2022-12-10T11:43:42;72;;;29;;
15504;SDS011;7854;52.184;5.942;2022-12-10T11:45:57;67;;;28;;
15504;SDS011;7854;52.184;5.942;2022-12-10T11:48:12;54;;;27;;
15504;SDS011;7854;52.184;5.942;2022-12-10T11:50:25;64;;;28;;
15504;SDS011;7854;52.184;5.942;2022-12-10T11:52:40;66;;;30;;
15504;SDS011;7854;52.184;5.942;2022-12-10T11:54:54;63;;;29;;
15504;SDS011;7854;52.184;5.942;2022-12-10T11:57:08;68;;;30;;
15504;SDS011;7854;52.184;5.942;2022-12-10T11:59:22;66;;;28;;
15504;SDS011;7854;52.184;5.942;2022-12-10T12:01:38;57;;;27;;
15504;SDS011;7854;52.184;5.942;2022-12-10T12:03:53;82;;;29;;
15504;SDS011;7854;52.184;5.942;2022-12-10T12:06:07;72;;;30;;
15504;SDS011;7854;52.184;5.942;2022-12-10T12:08:20;81;;;29;;
15504;SDS011;7854;52.184;5.942;2022-12-10T12:10:52;84;;;29;;
15504;SDS011;7854;52.184;5.942;2022-12-10T12:12:48;92;;;29;;
15504;SDS011;7854;52.184;5.942;2022-12-10T12:15:03;69;;;31;;
15504;SDS011;7854;52.184;5.942;2022-12-10T12:17:17;77;;;30;;
15504;SDS011;7854;52.184;5.942;2022-12-10T12:19:32;82;;;29;;
15504;SDS011;7854;52.184;5.942;2022-12-10T12:21:45;79;;;32;;
15504;SDS011;7854;52.184;5.942;2022-12-10T12:24:01;58;;;27;;
15504;SDS011;7854;52.184;5.942;2022-12-10T12:26:14;86;;;31;;
15504;SDS011;7854;52.184;5.942;2022-12-10T12:28:29;88;;;32;;
15504;SDS011;7854;52.184;5.942;2022-12-10T12:30:43;58;;;25;;
15504;SDS011;7854;52.184;5.942;2022-12-10T12:32:58;72;;;30;;
15504;SDS011;7854;52.184;5.942;2022-12-10T12:35:12;78;;;32;;
15504;SDS011;7854;52.184;5.942;2022-12-10T12:37:28;75;;;28;;
15504;SDS011;7854;52.184;5.942;2022-12-10T12:39:43;89;;;29;;
15504;SDS011;7854;52.184;5.942;2022-12-10T12:41:57;61;;;28;;
15504;SDS011;7854;52.184;5.942;2022-12-10T12:44:09;81;;;30;;
15504;SDS011;7854;52.184;5.942;2022-12-10T12:46:26;75;;;27;;
15504;SDS011;7854;52.184;5.942;2022-12-10T12:48:40;66;;;29;;
15504;SDS011;7854;52.184;5.942;2022-12-10T12:50:53;93;;;29;;
15504;SDS011;7854;52.184;5.942;2022-12-10T12:53:08;59;;;24;;
15504;SDS011;7854;52.184;5.942;2022-12-10T12:55:22;52;;;27;;
15504;SDS011;7854;52.184;5.942;2022-12-10T12:57:38;59;;;27;;
15504;SDS011;7854;52.184;5.942;2022-12-10T12:59:52;52;;;25;;
15504;SDS011;7854;52.184;5.942;2022-12-10T13:02:08;44;;;25;;
15504;SDS011;7854;52.184;5.942;2022-12-10T13:04:19;56;;;25;;
15504;SDS011;7854;52.184;5.942;2022-12-10T13:06:34;58;;;25;;
15504;SDS011;7854;52.184;5.942;2022-12-10T13:08:48;54;;;25;;
15504;SDS011;7854;52.184;5.942;2022-12-10T13:11:14;50;;;23;;
15504;SDS011;7854;52.184;5.942;2022-12-10T13:13:22;46;;;24;;
15504;SDS011;7854;52.184;5.942;2022-12-10T13:15:32;57;;;24;;
15504;SDS011;7854;52.184;5.942;2022-12-10T13:20:25;71;;;25;;
15504;SDS011;7854;52.184;5.942;2022-12-10T13:22:40;49;;;24;;
15504;SDS011;7854;52.184;5.942;2022-12-10T13:24:45;57;;;27;;
15504;SDS011;7854;52.184;5.942;2022-12-10T13:27:02;78;;;28;;
15504;SDS011;7854;52.184;5.942;2022-12-10T13:29:12;76;;;28;;
15504;SDS011;7854;52.184;5.942;2022-12-10T13:31:21;52;;;25;;
15504;SDS011;7854;52.184;5.942;2022-12-10T13:33:26;58;;;26;;
15504;SDS011;7854;52.184;5.942;2022-12-10T13:35:43;130;;;29;;
15504;SDS011;7854;52.184;5.942;2022-12-10T13:37:56;56;;;27;;
15504;SDS011;7854;52.184;5.942;2022-12-10T13:40:14;80;;;31;;
15504;SDS011;7854;52.184;5.942;2022-12-10T13:42:27;88;;;29;;
15504;SDS011;7854;52.184;5.942;2022-12-10T13:44:46;73;;;26;;
15504;SDS011;7854;52.184;5.942;2022-12-10T13:46:55;82;;;28;;
15504;SDS011;7854;52.184;5.942;2022-12-10T13:49:12;54;;;25;;
15504;SDS011;7854;52.184;5.942;2022-12-10T13:51:26;55;;;24;;
15504;SDS011;7854;52.184;5.942;2022-12-10T13:53:39;42;;;22;;
15504;SDS011;7854;52.184;5.942;2022-12-10T13:55:53;56;;;24;;
15504;SDS011;7854;52.184;5.942;2022-12-10T13:58:08;70;;;27;;
15504;SDS011;7854;52.184;5.942;2022-12-10T14:00:19;65;;;27;;
15504;SDS011;7854;52.184;5.942;2022-12-10T14:02:41;77;;;30;;
15504;SDS011;7854;52.184;5.942;2022-12-10T14:04:51;69;;;26;;
15504;SDS011;7854;52.184;5.942;2022-12-10T14:07:02;67;;;27;;
15504;SDS011;7854;52.184;5.942;2022-12-10T14:09:16;71;;;29;;
15504;SDS011;7854;52.184;5.942;2022-12-10T14:11:32;56;;;25;;
15504;SDS011;7854;52.184;5.942;2022-12-10T14:13:46;55;;;26;;
15504;SDS011;7854;52.184;5.942;2022-12-10T14:16:00;61;;;24;;
15504;SDS011;7854;52.184;5.942;2022-12-10T14:20:28;66;;;28;;
15504;SDS011;7854;52.184;5.942;2022-12-10T14:22:43;71;;;27;;
15504;SDS011;7854;52.184;5.942;2022-12-10T14:24:58;55;;;26;;
15504;SDS011;7854;52.184;5.942;2022-12-10T14:27:11;55;;;25;;
15504;SDS011;7854;52.184;5.942;2022-12-10T14:29:25;46;;;25;;
15504;SDS011;7854;52.184;5.942;2022-12-10T14:31:42;59;;;26;;
15504;SDS011;7854;52.184;5.942;2022-12-10T14:33:54;88;;;34;;
15504;SDS011;7854;52.184;5.942;2022-12-10T14:36:12;73;;;29;;
15504;SDS011;7854;52.184;5.942;2022-12-10T14:38:23;79;;;24;;
15504;SDS011;7854;52.184;5.942;2022-12-10T14:40:37;68;;;27;;
15504;SDS011;7854;52.184;5.942;2022-12-10T14:42:52;60;;;25;;